Ina Theresa — V7UJ2 — position and weather

sailwx.info

Track history (hours):
 
Tides and Currents Weather Stations Pressure Air Temp Water Temp Dewpoint Dewpoint Depression Visibility Wind Speed Wind Dir Waves Ship Positions

Ina Theresa

Last reported at 2015-Jul-06 19:32 UTC. Time now 2015-Jul-06 19:57 UTC.
Position N 31°18' E 121°49'.

Length 122 m; draft 8.6 m.

Type: Ship. MMSI: 538004548.

Date/timePositionNaut miles runAvg speedWind from/ knotsBaromVisibWave heightAir tempDewpointWater temp
2015-Jul-06 19:32N 31°18' E 121°49'0 0.1
2015-Jul-06 18:32N 31°18' E 121°49'0 0.1
2015-Jul-06 17:32N 31°18' E 121°49'0 0.0
2015-Jul-06 16:32N 31°18' E 121°49'0 0.1
2015-Jul-06 15:32N 31°18' E 121°49'0 0.0
2015-Jul-06 14:29N 31°18' E 121°49'0 0.0
2015-Jul-06 13:32N 31°18' E 121°49'0 0.1
2015-Jul-06 12:32N 31°18' E 121°49'0 0.0
2015-Jul-06 11:32N 31°18' E 121°49'0 0.0
2015-Jul-06 10:32N 31°18' E 121°49'0 0.0
2015-Jul-06 09:32N 31°18' E 121°49'0 0.2
2015-Jul-06 08:32N 31°18' E 121°49'0 0.1
2015-Jul-06 07:32N 31°18' E 121°49'0 0.0
2015-Jul-06 06:32N 31°18' E 121°49'0 0.0
2015-Jul-06 05:32N 31°18' E 121°49'0 0.1
2015-Jul-06 04:32N 31°18' E 121°49'5 5.0
2015-Jul-06 03:33N 31°16' E 121°54'1010.2
2015-Jul-06 02:33N 31°14' E 122°06'8 7.8
2015-Jul-06 01:33N 31°09' E 122°13'9 9.3
2015-Jul-06 00:33N 31°06' E 122°24'8 0.2
2015-Jul-04 04:10N 31°05' E 122°33'3 3.6
2015-Jul-04 03:29N 31°07' E 122°31'8 2.8
2015-Jul-04 00:32N 31°09' E 122°40'0 0.1
2015-Jul-03 23:23N 31°09' E 122°40'0 0.0
2015-Jul-03 22:32N 31°09' E 122°40'1 1.0
2015-Jul-03 21:33N 31°10' E 122°41'0 0.4
2015-Jul-03 20:28N 31°10' E 122°41'1 0.2
2015-Jul-03 18:22N 31°10' E 122°40'0 0.1
2015-Jul-03 16:26N 31°10' E 122°40'5 0.4
2015-Jul-03 04:33N 31°07' E 122°45'1411.8
2015-Jul-03 03:22N 31°00' E 122°58'1312.3
2015-Jul-03 02:17N 30°53' E 123°12'2511.2
2015-Jul-03 00:04N 30°30' E 123°20'1711.1
2015-Jul-02 22:33N 30°13' E 123°15'2010.3
2015-Jul-02 20:33N 29°54' E 123°06'1010.3
2015-Jul-02 19:33N 29°45' E 123°00'1110.5
2015-Jul-02 18:32N 29°35' E 122°57'1010.7
2015-Jul-02 17:33N 29°25' E 122°55'1211.2
2015-Jul-02 16:29N 29°13' E 122°51'1111.7
2015-Jul-02 15:30N 29°02' E 122°47'1212.1
2015-Jul-02 14:32N 28°51' E 122°44'1212.0
2015-Jul-02 13:31N 28°39' E 122°40'  
Track history (hours):
 
Tides and Currents Weather Stations Pressure Air Temp Water Temp Dewpoint Dewpoint Depression Visibility Wind Speed Wind Dir Waves Ship Positions

Ina Theresa

Last reported at 2015-Jul-06 19:32 UTC. Time now 2015-Jul-06 19:57 UTC.
Position N 31°18' E 121°49'.

Length 122 m; draft 8.6 m.

Type: Ship. MMSI: 538004548.

Date/timePositionNaut miles runAvg speedWind from/ knotsBaromVisibWave heightAir tempDewpointWater temp
2015-Jul-06 19:32N 31°18' E 121°49'0 0.1
2015-Jul-06 18:32N 31°18' E 121°49'0 0.1
2015-Jul-06 17:32N 31°18' E 121°49'0 0.0
2015-Jul-06 16:32N 31°18' E 121°49'0 0.1
2015-Jul-06 15:32N 31°18' E 121°49'0 0.0
2015-Jul-06 14:29N 31°18' E 121°49'0 0.0
2015-Jul-06 13:32N 31°18' E 121°49'0 0.1
2015-Jul-06 12:32N 31°18' E 121°49'0 0.0
2015-Jul-06 11:32N 31°18' E 121°49'0 0.0
2015-Jul-06 10:32N 31°18' E 121°49'0 0.0
2015-Jul-06 09:32N 31°18' E 121°49'0 0.2
2015-Jul-06 08:32N 31°18' E 121°49'0 0.1
2015-Jul-06 07:32N 31°18' E 121°49'0 0.0
2015-Jul-06 06:32N 31°18' E 121°49'0 0.0
2015-Jul-06 05:32N 31°18' E 121°49'0 0.1
2015-Jul-06 04:32N 31°18' E 121°49'5 5.0
2015-Jul-06 03:33N 31°16' E 121°54'1010.2
2015-Jul-06 02:33N 31°14' E 122°06'8 7.8
2015-Jul-06 01:33N 31°09' E 122°13'9 9.3
2015-Jul-06 00:33N 31°06' E 122°24'8 0.2
2015-Jul-04 04:10N 31°05' E 122°33'3 3.6
2015-Jul-04 03:29N 31°07' E 122°31'8 2.8
2015-Jul-04 00:32N 31°09' E 122°40'0 0.1
2015-Jul-03 23:23N 31°09' E 122°40'0 0.0
2015-Jul-03 22:32N 31°09' E 122°40'1 1.0
2015-Jul-03 21:33N 31°10' E 122°41'0 0.4
2015-Jul-03 20:28N 31°10' E 122°41'1 0.2
2015-Jul-03 18:22N 31°10' E 122°40'0 0.1
2015-Jul-03 16:26N 31°10' E 122°40'5 0.4
2015-Jul-03 04:33N 31°07' E 122°45'1411.8
2015-Jul-03 03:22N 31°00' E 122°58'1312.3
2015-Jul-03 02:17N 30°53' E 123°12'2511.2
2015-Jul-03 00:04N 30°30' E 123°20'1711.1
2015-Jul-02 22:33N 30°13' E 123°15'2010.3
2015-Jul-02 20:33N 29°54' E 123°06'1010.3
2015-Jul-02 19:33N 29°45' E 123°00'1110.5
2015-Jul-02 18:32N 29°35' E 122°57'1010.7
2015-Jul-02 17:33N 29°25' E 122°55'1211.2
2015-Jul-02 16:29N 29°13' E 122°51'1111.7
2015-Jul-02 15:30N 29°02' E 122°47'1212.1
2015-Jul-02 14:32N 28°51' E 122°44'1212.0
2015-Jul-02 13:31N 28°39' E 122°40'  

Dump ship's entire track history